Time;durP1;ratioP1;P1;durP2;ratioP2;P2;SDS_P1;SDS_P2;PMS_P1;PMS_P2;Temp;Humidity;BMP_temperature;BMP_pressure;BME280_temperature;BME280_humidity;BME280_pressure;Samples;Min_cycle;Max_cycle;Signal;HPM_P1;HPM_P2
2023/09/04 00:04:52;;;;;;;9.10;4.40;;;;;;;16.01;99.64;101645.48;218716;1290;139848;-88
2023/09/04 00:09:52;;;;;;;7.30;3.60;;;;;;;16.01;99.72;101643.42;218232;1289;142197;-88
2023/09/04 00:14:53;;;;;;;11.00;4.70;;;;;;;16.02;99.69;101638.76;218708;1289;139582;-87
2023/09/04 00:19:53;;;;;;;12.70;4.60;;;;;;;16.00;99.75;101629.78;218025;1287;142310;-87
2023/09/04 00:24:54;;;;;;;7.90;4.50;;;;;;;15.99;99.83;101632.08;218807;1286;139903;-88
2023/09/04 00:29:54;;;;;;;8.20;3.70;;;;;;;15.98;99.85;101629.60;218331;1288;142108;-88
2023/09/04 00:34:55;;;;;;;11.10;4.50;;;;;;;15.98;99.92;101633.23;218680;1288;138740;-88
2023/09/04 00:39:56;;;;;;;9.90;3.90;;;;;;;15.97;99.90;101643.00;218020;1286;141942;-88
2023/09/04 00:45:00;;;;;;;10.10;4.60;;;;;;;15.98;99.95;101646.19;218752;1290;140733;-88
2023/09/04 00:50:01;;;;;;;8.90;3.60;;;;;;;15.98;100.00;101643.33;217861;1289;141439;-89
2023/09/04 00:55:05;;;;;;;9.60;4.10;;;;;;;15.99;100.00;101628.27;218768;1288;139397;-89
2023/09/04 01:00:10;;;;;;;9.50;3.50;;;;;;;15.99;100.00;101616.77;218298;1288;141399;-88
2023/09/04 01:05:11;;;;;;;8.80;3.90;;;;;;;15.98;100.00;101613.65;218436;1288;139384;-88
2023/09/04 01:10:13;;;;;;;9.10;3.50;;;;;;;15.96;100.00;101609.36;218250;1288;141731;-89
2023/09/04 01:15:14;;;;;;;10.40;4.00;;;;;;;15.95;100.00;101611.02;218749;1287;139890;-87
2023/09/04 01:20:37;;;;;;;9.20;3.60;;;;;;;15.93;100.00;101606.33;218240;1288;143291;-88
2023/09/04 01:25:56;;;;;;;9.60;3.50;;;;;;;15.87;100.00;101605.48;218473;1288;139883;-88
2023/09/04 01:31:26;;;;;;;8.10;3.60;;;;;;;15.81;100.00;101624.06;218232;1286;141833;-88
2023/09/04 01:36:31;;;;;;;9.20;3.90;;;;;;;15.79;100.00;101615.40;218812;1289;96573;-88
2023/09/04 01:41:31;;;;;;;7.60;3.70;;;;;;;15.76;100.00;101621.09;218207;1291;142383;-88
2023/09/04 01:46:32;;;;;;;9.80;4.00;;;;;;;15.72;100.00;101622.70;218594;1286;138899;-87
2023/09/04 01:51:33;;;;;;;9.60;3.90;;;;;;;15.69;100.00;101634.73;218454;1288;142751;-87
2023/09/04 01:56:33;;;;;;;10.50;4.00;;;;;;;15.65;100.00;101634.54;219155;1289;139629;-87
2023/09/04 02:01:35;;;;;;;6.50;3.30;;;;;;;15.61;100.00;101638.22;218053;1292;142427;-88
2023/09/04 02:06:36;;;;;;;8.00;3.50;;;;;;;15.57;100.00;101642.95;218558;1288;96414;-88
2023/09/04 02:11:36;;;;;;;10.00;3.70;;;;;;;15.53;100.00;101650.51;218205;1286;140661;-88
2023/09/04 02:16:37;;;;;;;9.80;3.60;;;;;;;15.46;100.00;101651.16;218797;1289;139262;-88
2023/09/04 02:21:38;;;;;;;7.30;3.50;;;;;;;15.45;100.00;101653.44;217892;1292;141018;-88
2023/09/04 02:26:38;;;;;;;6.90;3.20;;;;;;;15.43;100.00;101661.75;218728;1288;139159;-89
2023/09/04 02:31:39;;;;;;;6.70;3.30;;;;;;;15.42;100.00;101670.20;218210;1289;144408;-88
2023/09/04 02:36:39;;;;;;;9.00;3.50;;;;;;;15.41;100.00;101685.73;218836;1288;96849;-88
2023/09/04 02:41:39;;;;;;;8.10;3.80;;;;;;;15.41;100.00;101677.58;218280;1286;141159;-88
2023/09/04 02:46:40;;;;;;;9.20;3.80;;;;;;;15.40;100.00;101672.98;218822;1288;139993;-88
2023/09/04 02:51:41;;;;;;;9.00;4.10;;;;;;;15.40;100.00;101666.08;218267;1288;141815;-88
2023/09/04 02:56:42;;;;;;;10.30;3.70;;;;;;;15.37;100.00;101663.98;218784;1288;139792;-88
2023/09/04 03:01:42;;;;;;;7.20;3.30;;;;;;;15.32;100.00;101663.90;218152;1289;142049;-89
2023/09/04 03:06:43;;;;;;;7.00;3.40;;;;;;;15.28;100.00;101663.27;218676;1287;95973;-88
2023/09/04 03:11:43;;;;;;;9.80;3.50;;;;;;;15.24;100.00;101661.34;218355;1288;142898;-88
2023/09/04 03:16:44;;;;;;;7.70;3.50;;;;;;;15.21;100.00;101656.08;218932;1288;138978;-89
2023/09/04 03:21:44;;;;;;;9.00;3.70;;;;;;;15.18;100.00;101655.48;218103;1288;141815;-89
2023/09/04 03:26:44;;;;;;;9.70;4.00;;;;;;;15.17;100.00;101658.33;218509;1288;139321;-89
2023/09/04 03:31:46;;;;;;;9.00;4.00;;;;;;;15.15;100.00;101654.02;218232;1287;143048;-89
2023/09/04 03:36:46;;;;;;;6.80;3.60;;;;;;;15.12;100.00;101665.55;218939;1287;96289;-89
2023/09/04 03:41:47;;;;;;;8.90;4.00;;;;;;;15.09;100.00;101672.09;218081;1287;141300;-89
2023/09/04 03:46:48;;;;;;;12.60;6.30;;;;;;;15.06;100.00;101671.49;218537;1288;139418;-89
2023/09/04 03:51:48;;;;;;;10.90;4.60;;;;;;;15.03;100.00;101683.42;218208;1286;142249;-89
2023/09/04 03:56:49;;;;;;;8.90;4.50;;;;;;;15.00;100.00;101684.48;218557;1288;139403;-89
2023/09/04 04:01:51;;;;;;;8.90;4.40;;;;;;;14.96;100.00;101690.93;218018;1286;142518;-88
2023/09/04 04:06:51;;;;;;;9.40;4.60;;;;;;;14.89;100.00;101700.19;218796;1288;138977;-88
2023/09/04 04:11:52;;;;;;;11.10;4.60;;;;;;;14.84;100.00;101706.29;218367;1288;140108;-88
2023/09/04 04:16:53;;;;;;;11.30;4.20;;;;;;;14.77;100.00;101713.88;218847;1288;139513;-88
2023/09/04 04:21:53;;;;;;;9.60;5.00;;;;;;;14.70;100.00;101711.23;218271;1286;141391;-88
2023/09/04 04:26:54;;;;;;;12.10;4.90;;;;;;;14.62;100.00;101722.51;218752;1286;139927;-88
2023/09/04 04:31:54;;;;;;;8.20;4.30;;;;;;;14.57;100.00;101724.02;218243;1288;141135;-88
2023/09/04 04:36:56;;;;;;;11.10;4.60;;;;;;;14.52;100.00;101721.64;218816;1286;139301;-88
2023/09/04 04:41:57;;;;;;;8.50;4.90;;;;;;;14.45;100.00;101718.36;218316;1288;141205;-88
2023/09/04 04:46:57;;;;;;;8.70;4.80;;;;;;;14.40;100.00;101713.94;218519;1287;139313;-88
2023/09/04 04:51:58;;;;;;;9.30;4.50;;;;;;;14.37;100.00;101714.30;218440;1286;142198;-88
2023/09/04 04:56:59;;;;;;;9.20;4.50;;;;;;;14.35;100.00;101728.17;219260;1286;139036;-87
2023/09/04 05:02:00;;;;;;;8.30;4.40;;;;;;;14.34;100.00;101728.70;218114;1287;140886;-87
2023/09/04 05:07:00;;;;;;;11.80;5.20;;;;;;;14.34;100.00;101725.31;218845;1286;139242;-88
2023/09/04 05:12:01;;;;;;;9.80;4.70;;;;;;;14.38;100.00;101721.09;218320;1288;141834;-88
2023/09/04 05:17:01;;;;;;;15.40;6.00;;;;;;;14.41;100.00;101725.67;218706;1288;139799;-88
2023/09/04 05:22:02;;;;;;;12.80;5.70;;;;;;;14.48;100.00;101721.51;218143;1288;140183;-88
2023/09/04 05:27:03;;;;;;;10.60;5.40;;;;;;;14.58;100.00;101718.64;218718;1286;139566;-88
2023/09/04 05:32:04;;;;;;;10.40;5.60;;;;;;;14.68;100.00;101725.52;217886;1288;142039;-88
2023/09/04 05:37:04;;;;;;;10.00;5.40;;;;;;;14.78;100.00;101734.95;218438;1288;139582;-88
2023/09/04 05:42:05;;;;;;;10.80;5.50;;;;;;;14.91;100.00;101736.89;218195;1286;141195;-87
2023/09/04 05:47:06;;;;;;;13.30;5.20;;;;;;;15.05;100.00;101732.23;218657;1287;139819;-88
2023/09/04 05:52:06;;;;;;;9.70;5.60;;;;;;;15.19;100.00;101736.70;217825;1288;141688;-88
2023/09/04 05:57:07;;;;;;;9.30;5.60;;;;;;;15.30;100.00;101738.38;218315;1287;140343;-89
2023/09/04 06:02:08;;;;;;;13.50;5.30;;;;;;;15.38;100.00;101737.69;217937;1286;141228;-87
2023/09/04 06:07:10;;;;;;;16.20;6.60;;;;;;;15.50;100.00;101741.51;218749;1286;139831;-89
2023/09/04 06:12:14;;;;;;;12.30;6.80;;;;;;;15.65;100.00;101732.73;218270;1288;140838;-89
2023/09/04 06:17:15;;;;;;;13.40;5.60;;;;;;;15.81;100.00;101727.24;218455;1288;140849;-88
2023/09/04 06:22:18;;;;;;;11.30;4.80;;;;;;;15.94;100.00;101735.23;217993;1287;142433;-87
2023/09/04 06:27:18;;;;;;;9.90;5.10;;;;;;;16.05;100.00;101737.17;218676;1287;140020;-87
2023/09/04 06:32:19;;;;;;;10.80;4.50;;;;;;;16.19;100.00;101746.42;218208;1286;141952;-89
2023/09/04 06:37:20;;;;;;;10.70;4.80;;;;;;;16.29;100.00;101747.08;218555;1287;139799;-90
2023/09/04 06:42:20;;;;;;;10.60;4.60;;;;;;;16.38;100.00;101746.14;218283;1286;141439;-90
2023/09/04 06:47:21;;;;;;;8.80;4.90;;;;;;;16.47;100.00;101747.11;218779;1287;139844;-89
2023/09/04 06:52:21;;;;;;;9.80;5.00;;;;;;;16.55;100.00;101754.87;218229;1286;141035;-90
2023/09/04 06:57:22;;;;;;;9.90;5.00;;;;;;;16.65;100.00;101754.96;218721;1287;139700;-90
2023/09/04 07:02:23;;;;;;;10.20;4.30;;;;;;;16.73;100.00;101756.85;217933;1288;140997;-89
2023/09/04 07:07:24;;;;;;;10.80;5.40;;;;;;;16.84;100.00;101749.84;218590;1287;139878;-89
2023/09/04 07:12:24;;;;;;;11.30;5.30;;;;;;;16.94;100.00;101754.99;218029;1286;140850;-90
2023/09/04 07:17:25;;;;;;;13.30;5.30;;;;;;;17.04;100.00;101752.60;218373;1285;139905;-90
2023/09/04 07:22:25;;;;;;;12.50;6.40;;;;;;;17.16;100.00;101760.92;217999;1288;142192;-89
2023/09/04 07:27:26;;;;;;;14.10;5.70;;;;;;;17.28;100.00;101768.95;218550;1285;139750;-87
2023/09/04 07:32:28;;;;;;;11.00;5.30;;;;;;;17.41;100.00;101773.24;218116;1285;140818;-90
2023/09/04 07:37:28;;;;;;;12.00;4.70;;;;;;;17.54;100.00;101776.64;218651;1286;139362;-89
2023/09/04 07:42:28;;;;;;;9.70;4.20;;;;;;;17.67;100.00;101777.49;217956;1288;140683;-88
2023/09/04 07:47:29;;;;;;;7.80;3.80;;;;;;;17.82;100.00;101775.39;218725;1288;138982;-89
2023/09/04 07:52:29;;;;;;;12.60;4.40;;;;;;;17.97;100.00;101768.98;218152;1288;142255;-89
2023/09/04 07:57:32;;;;;;;8.70;3.70;;;;;;;18.12;100.00;101772.84;218825;1286;141691;-89
2023/09/04 08:02:33;;;;;;;10.30;3.60;;;;;;;18.25;100.00;101778.91;218298;1286;140655;-88
2023/09/04 08:07:33;;;;;;;9.10;3.40;;;;;;;18.43;100.00;101776.56;218875;1286;139246;-89
2023/09/04 08:12:34;;;;;;;9.70;3.40;;;;;;;18.65;100.00;101781.58;218435;1288;141677;-89
2023/09/04 08:17:35;;;;;;;9.40;4.70;;;;;;;18.88;100.00;101778.70;218822;1287;139051;-91
2023/09/04 08:22:36;;;;;;;8.10;3.50;;;;;;;19.19;100.00;101783.92;217891;1288;143736;-89
2023/09/04 08:27:38;;;;;;;6.70;2.50;;;;;;;19.49;100.00;101791.17;218758;1287;139327;-88
2023/09/04 08:32:39;;;;;;;9.10;2.70;;;;;;;19.70;100.00;101797.23;218063;1286;141132;-88
2023/09/04 08:37:40;;;;;;;5.70;2.90;;;;;;;19.99;100.00;101792.85;218484;1286;139247;-89
2023/09/04 08:42:45;;;;;;;7.40;2.70;;;;;;;20.40;100.00;101791.34;218292;1287;141639;-89
2023/09/04 08:47:46;;;;;;;11.80;2.80;;;;;;;20.92;99.79;101795.70;218352;1287;139164;-89
2023/09/04 08:52:49;;;;;;;7.40;2.50;;;;;;;21.44;99.26;101801.95;218199;1286;141643;-88
2023/09/04 08:57:49;;;;;;;7.10;2.40;;;;;;;22.08;99.19;101797.30;218817;1286;139417;-87
2023/09/04 09:02:51;;;;;;;7.10;2.40;;;;;;;22.86;97.47;101798.16;217884;1286;140399;-87
2023/09/04 09:07:53;;;;;;;5.30;2.00;;;;;;;23.69;94.11;101792.06;218394;1287;139105;-87
2023/09/04 09:12:54;;;;;;;7.10;1.80;;;;;;;24.44;90.45;101779.61;218100;1286;141634;-87
2023/09/04 09:17:56;;;;;;;7.10;2.60;;;;;;;25.29;86.46;101773.36;218755;1286;138812;-88
2023/09/04 09:22:58;;;;;;;7.60;2.20;;;;;;;26.15;84.43;101770.95;218225;1287;140762;-87
2023/09/04 09:28:04;;;;;;;7.90;2.40;;;;;;;27.11;81.92;101765.04;218432;1287;139129;-88
2023/09/04 09:33:09;;;;;;;6.20;2.00;;;;;;;27.76;73.30;101764.97;217980;1288;140909;-88
2023/09/04 09:38:10;;;;;;;3.20;1.80;;;;;;;28.12;73.96;101772.05;218625;1286;139313;-88
2023/09/04 09:43:10;;;;;;;5.70;1.80;;;;;;;28.67;71.05;101771.15;218139;1288;142070;-88
2023/09/04 09:48:12;;;;;;;7.10;2.20;;;;;;;29.04;68.27;101772.02;219024;1287;96048;-88
2023/09/04 09:53:12;;;;;;;5.30;2.20;;;;;;;29.33;67.90;101771.41;218050;1287;140340;-86
2023/09/04 09:58:14;;;;;;;6.70;2.10;;;;;;;29.74;65.83;101765.81;218498;1286;138839;-87
2023/09/04 10:03:14;;;;;;;7.90;2.50;;;;;;;30.08;63.34;101768.72;218224;1288;139782;-89
2023/09/04 10:08:15;;;;;;;4.90;2.20;;;;;;;30.17;59.10;101768.86;218888;1288;138760;-88
2023/09/04 10:13:22;;;;;;;4.10;2.00;;;;;;;30.13;59.13;101771.95;218356;1286;140490;-86
2023/09/04 10:18:30;;;;;;;5.20;1.90;;;;;;;30.52;60.15;101767.41;218997;1286;99493;-86
2023/09/04 10:23:44;;;;;;;4.90;2.20;;;;;;;30.66;58.34;101769.56;218371;1288;141368;-87
2023/09/04 10:28:50;;;;;;;7.20;2.60;;;;;;;30.76;58.80;101767.93;218622;1289;138065;-88
2023/09/04 10:33:52;;;;;;;7.50;2.00;;;;;;;30.88;56.35;101762.02;218108;1286;142735;-87
2023/09/04 10:38:54;;;;;;;3.70;2.00;;;;;;;31.02;55.73;101757.55;218612;1288;138570;-87
2023/09/04 10:43:55;;;;;;;5.40;1.90;;;;;;;31.08;54.84;101757.00;218333;1288;140258;-87
2023/09/04 10:48:55;;;;;;;3.30;1.80;;;;;;;31.39;55.67;101749.45;218945;1287;96140;-88
2023/09/04 10:53:58;;;;;;;6.50;1.90;;;;;;;31.77;56.15;101744.80;218225;1287;139912;-87
2023/09/04 10:59:02;;;;;;;4.40;2.10;;;;;;;31.71;53.19;101745.58;218493;1288;278812;-88
2023/09/04 11:04:05;;;;;;;7.00;2.00;;;;;;;31.35;53.12;101741.95;218455;1287;139201;-87
2023/09/04 11:09:11;;;;;;;3.60;1.80;;;;;;;31.12;53.36;101741.10;218317;1286;140355;-87
2023/09/04 11:14:12;;;;;;;4.70;2.10;;;;;;;30.85;54.14;101741.80;218703;1287;138730;-87
2023/09/04 11:19:16;;;;;;;3.60;1.90;;;;;;;30.80;54.01;101742.30;218101;1287;141705;-87
2023/09/04 11:24:19;;;;;;;5.50;2.00;;;;;;;30.68;52.98;101744.94;218883;1285;96078;-88
2023/09/04 11:29:20;;;;;;;6.20;2.20;;;;;;;30.29;51.84;101745.48;217971;1288;140326;-87
2023/09/04 11:34:21;;;;;;;6.30;2.30;;;;;;;30.11;52.04;101747.08;218568;1287;138686;-88
2023/09/04 11:39:21;;;;;;;5.20;1.90;;;;;;;30.11;54.06;101742.70;218040;1287;140322;-87
2023/09/04 11:44:22;;;;;;;5.30;1.70;;;;;;;30.16;53.66;101739.23;218744;1288;138357;-88
2023/09/04 11:49:23;;;;;;;5.40;1.70;;;;;;;30.08;54.17;101732.36;218120;1288;141875;-86
2023/09/04 11:54:30;;;;;;;5.70;2.20;;;;;;;30.07;54.57;101727.06;218867;1288;96962;-88
2023/09/04 11:59:37;;;;;;;3.70;1.90;;;;;;;29.95;54.68;101723.17;218198;1287;140528;-89
2023/09/04 12:04:38;;;;;;;4.80;2.10;;;;;;;29.94;54.51;101710.49;218580;1286;139916;-89
2023/09/04 12:09:38;;;;;;;5.30;2.00;;;;;;;29.96;54.30;101710.95;218038;1286;140538;-87
2023/09/04 12:14:45;;;;;;;4.30;1.70;;;;;;;30.10;54.81;101708.66;218631;1288;138888;-89
2023/09/04 12:19:46;;;;;;;4.60;2.00;;;;;;;30.12;54.69;101707.27;218259;1287;140178;-89
2023/09/04 12:25:04;;;;;;;5.30;2.00;;;;;;;30.00;54.50;101702.67;218968;1288;96879;-87
2023/09/04 12:30:09;;;;;;;3.70;1.70;;;;;;;29.85;54.36;101700.67;218209;1286;140935;-88
2023/09/04 12:35:09;;;;;;;5.50;2.00;;;;;;;29.83;53.90;101698.00;218729;1286;138943;-89
2023/09/04 12:40:10;;;;;;;5.10;1.80;;;;;;;29.71;54.22;101694.29;218329;1287;140079;-87
2023/09/04 12:45:11;;;;;;;6.30;2.10;;;;;;;29.54;54.53;101692.17;218667;1287;139152;-89
2023/09/04 12:50:11;;;;;;;5.50;1.90;;;;;;;29.33;54.16;101692.23;218193;1287;140136;-88
2023/09/04 12:55:13;;;;;;;5.00;1.90;;;;;;;29.29;53.76;101684.55;218739;1288;139105;-88
2023/09/04 13:00:14;;;;;;;3.30;2.00;;;;;;;29.12;55.00;101679.36;218204;1287;141674;-88
2023/09/04 13:05:14;;;;;;;5.00;1.70;;;;;;;28.90;54.59;101672.19;218503;1288;138414;-89
2023/09/04 13:10:15;;;;;;;7.80;2.10;;;;;;;28.69;56.05;101671.92;218327;1287;140231;-89
2023/09/04 13:15:16;;;;;;;3.40;1.70;;;;;;;28.91;56.33;101667.30;218823;1288;138447;-88
2023/09/04 13:20:16;;;;;;;5.20;2.30;;;;;;;28.94;56.90;101660.08;218270;1286;140689;-89
2023/09/04 13:25:17;;;;;;;6.80;2.50;;;;;;;28.97;56.06;101659.48;218729;1287;138580;-88
2023/09/04 13:30:18;;;;;;;6.70;2.20;;;;;;;28.74;56.32;101659.85;218123;1288;139658;-89
2023/09/04 13:35:19;;;;;;;4.30;2.30;;;;;;;28.59;56.04;101652.35;218367;1286;138676;-89
2023/09/04 13:40:19;;;;;;;5.90;1.90;;;;;;;28.43;56.25;101655.08;217957;1289;139500;-89
2023/09/04 13:45:20;;;;;;;6.70;2.40;;;;;;;28.35;57.02;101657.85;218634;1286;138235;-91
2023/09/04 13:50:20;;;;;;;6.90;2.10;;;;;;;28.33;57.07;101651.41;218128;1286;141323;-89
2023/09/04 13:55:21;;;;;;;4.70;2.40;;;;;;;28.01;56.04;101638.33;218744;1286;138215;-89
2023/09/04 14:00:22;;;;;;;4.50;2.30;;;;;;;27.72;56.97;101641.35;218263;1286;139893;-90
2023/09/04 14:05:22;;;;;;;8.90;2.60;;;;;;;27.66;57.46;101643.50;218831;1286;138345;-89
2023/09/04 14:10:23;;;;;;;7.40;2.50;;;;;;;27.52;57.07;101642.83;218257;1287;140320;-90
2023/09/04 14:15:23;;;;;;;6.40;2.30;;;;;;;27.23;56.95;101646.77;218415;1289;139348;-88
2023/09/04 14:20:25;;;;;;;5.90;2.60;;;;;;;27.00;58.50;101643.91;218068;1286;140930;-88
2023/09/04 14:25:25;;;;;;;11.40;2.20;;;;;;;26.89;59.76;101637.23;218673;1287;138660;-88
2023/09/04 14:30:26;;;;;;;4.30;2.30;;;;;;;26.78;60.24;101633.21;218241;1286;140748;-88
2023/09/04 14:35:27;;;;;;;7.20;2.30;;;;;;;26.62;61.30;101628.23;218746;1288;138257;-87
2023/09/04 14:40:32;;;;;;;6.00;2.50;;;;;;;26.58;60.68;101632.90;217925;1289;139926;-88
2023/09/04 14:45:32;;;;;;;5.90;2.30;;;;;;;26.57;61.43;101635.42;218390;1288;138715;-87
2023/09/04 14:50:34;;;;;;;4.60;2.40;;;;;;;26.41;61.03;101637.67;218096;1289;140128;-87
2023/09/04 14:55:38;;;;;;;5.00;2.10;;;;;;;26.29;62.28;101636.77;218748;1288;138620;-88
2023/09/04 15:00:44;;;;;;;4.00;2.40;;;;;;;26.20;62.51;101631.29;218217;1288;140509;-87
2023/09/04 15:05:44;;;;;;;4.10;2.10;;;;;;;26.12;63.55;101628.76;218318;1288;138841;-87
2023/09/04 15:10:44;;;;;;;5.30;2.30;;;;;;;26.13;63.34;101620.59;217991;1289;139509;-90
2023/09/04 15:15:45;;;;;;;5.00;2.40;;;;;;;25.90;62.56;101610.52;218553;1288;138863;-89
2023/09/04 15:20:45;;;;;;;4.40;2.40;;;;;;;25.64;61.37;101614.85;218098;1289;140034;-88
2023/09/04 15:25:46;;;;;;;7.60;2.70;;;;;;;25.48;62.91;101606.98;218722;1286;138760;-88
2023/09/04 15:30:47;;;;;;;5.60;2.40;;;;;;;25.46;62.74;101612.21;218088;1289;141271;-88
2023/09/04 15:35:47;;;;;;;5.20;2.20;;;;;;;25.44;63.99;101613.64;218652;1286;140041;-87
2023/09/04 15:40:48;;;;;;;7.00;2.50;;;;;;;25.31;64.04;101608.80;217815;1289;141717;-88
2023/09/04 15:45:51;;;;;;;6.10;2.40;;;;;;;25.23;64.20;101611.39;218691;1289;138336;-87
2023/09/04 15:50:51;;;;;;;5.50;2.40;;;;;;;25.07;65.31;101619.02;217885;1289;141358;-88
2023/09/04 15:55:55;;;;;;;5.00;2.30;;;;;;;25.01;65.24;101619.44;218535;1289;138575;-88
2023/09/04 16:00:56;;;;;;;4.40;2.10;;;;;;;24.92;65.43;101621.55;218248;1289;140412;-87
2023/09/04 16:05:57;;;;;;;6.20;2.20;;;;;;;24.85;66.12;101618.78;218591;1286;139102;-88
2023/09/04 16:10:58;;;;;;;8.00;3.20;;;;;;;24.63;66.64;101619.83;218023;1289;140234;-88
2023/09/04 16:15:59;;;;;;;3.80;2.10;;;;;;;24.54;67.22;101617.77;218629;1286;138300;-88
2023/09/04 16:21:03;;;;;;;4.40;2.40;;;;;;;24.50;67.31;101616.52;217980;1286;140370;-88
2023/09/04 16:26:09;;;;;;;5.40;2.40;;;;;;;24.42;66.74;101616.17;218735;1286;139030;-88
2023/09/04 16:31:10;;;;;;;3.90;2.00;;;;;;;24.33;67.29;101612.23;218214;1288;140720;-88
2023/09/04 16:36:10;;;;;;;5.80;2.70;;;;;;;24.27;67.90;101613.13;218822;1287;96068;-89
2023/09/04 16:41:11;;;;;;;8.30;2.60;;;;;;;24.19;68.68;101612.27;218227;1285;140896;-89
2023/09/04 16:46:15;;;;;;;8.40;2.70;;;;;;;24.09;69.11;101604.52;218634;1289;138350;-89
2023/09/04 16:51:15;;;;;;;5.30;2.30;;;;;;;23.97;69.51;101600.95;218152;1290;140090;-88
2023/09/04 16:56:19;;;;;;;8.00;2.10;;;;;;;23.79;69.63;101605.56;218834;1287;138855;-88
2023/09/04 17:01:20;;;;;;;6.00;2.40;;;;;;;23.59;70.18;101604.92;217924;1291;140157;-88
2023/09/04 17:06:21;;;;;;;10.40;2.80;;;;;;;23.34;70.30;101612.42;218789;1288;96096;-88
2023/09/04 17:11:21;;;;;;;7.00;2.60;;;;;;;23.08;71.17;101623.23;218248;1286;140377;-87
2023/09/04 17:16:21;;;;;;;6.90;2.50;;;;;;;22.91;72.69;101627.92;218646;1289;138922;-88
2023/09/04 17:21:22;;;;;;;12.60;2.90;;;;;;;22.78;73.88;101622.48;218084;1286;140201;-88
2023/09/04 17:26:22;;;;;;;7.50;3.00;;;;;;;22.63;74.95;101622.85;218388;1288;138637;-87
2023/09/04 17:31:23;;;;;;;8.10;3.60;;;;;;;22.50;75.34;101619.74;217766;1289;140295;-88
2023/09/04 17:36:23;;;;;;;10.00;3.60;;;;;;;22.35;76.28;101620.16;218629;1289;96438;-88
2023/09/04 17:41:23;;;;;;;19.30;4.50;;;;;;;22.21;77.10;101617.05;217949;1289;141636;-88
2023/09/04 17:46:27;;;;;;;8.40;3.20;;;;;;;22.05;78.41;101612.92;218496;1291;139758;-88
2023/09/04 17:51:27;;;;;;;15.30;4.60;;;;;;;21.90;79.33;101612.63;217737;1289;140643;-89
2023/09/04 17:56:28;;;;;;;18.70;4.20;;;;;;;21.69;80.37;101604.63;218270;1291;140475;-88
2023/09/04 18:01:29;;;;;;;12.60;4.30;;;;;;;21.56;81.04;101603.44;217959;1288;141936;-88
2023/09/04 18:06:30;;;;;;;18.50;4.30;;;;;;;21.41;82.09;101610.23;218354;1289;96585;-89
2023/09/04 18:11:31;;;;;;;9.40;3.50;;;;;;;21.20;83.08;101614.39;217996;1289;141192;-88
2023/09/04 18:16:32;;;;;;;10.80;3.30;;;;;;;21.04;83.80;101617.71;218545;1288;138768;-88
2023/09/04 18:21:32;;;;;;;10.40;3.40;;;;;;;20.88;84.82;101619.58;217863;1288;142015;-88
2023/09/04 18:26:36;;;;;;;7.70;4.40;;;;;;;20.75;85.34;101624.27;218688;1286;139190;-88
2023/09/04 18:31:37;;;;;;;8.00;3.80;;;;;;;20.64;86.67;101627.12;217810;1291;141564;-87
2023/09/04 18:36:38;;;;;;;7.40;3.80;;;;;;;20.47;87.59;101623.94;218670;1291;95990;-88
2023/09/04 18:41:40;;;;;;;6.40;3.80;;;;;;;20.38;88.16;101626.67;217942;1288;141644;-89
2023/09/04 18:46:40;;;;;;;10.30;4.00;;;;;;;20.33;88.47;101635.74;218535;1289;139364;-89
2023/09/04 18:51:41;;;;;;;7.00;3.60;;;;;;;20.24;89.15;101640.95;218202;1287;141394;-88
2023/09/04 18:56:41;;;;;;;8.20;3.50;;;;;;;20.14;89.49;101646.06;218824;1288;138967;-88
2023/09/04 19:01:42;;;;;;;10.40;3.60;;;;;;;20.05;89.93;101646.13;218276;1288;140770;-89
2023/09/04 19:06:42;;;;;;;8.90;3.40;;;;;;;19.95;90.05;101638.45;218967;1288;96134;-89
2023/09/04 19:11:42;;;;;;;7.50;3.00;;;;;;;19.87;90.50;101637.96;218102;1286;141193;-88
2023/09/04 19:16:43;;;;;;;7.20;3.10;;;;;;;19.81;90.75;101639.99;218913;1288;139405;-89
2023/09/04 19:21:44;;;;;;;5.80;3.10;;;;;;;19.75;91.33;101635.73;218359;1288;141904;-88
2023/09/04 19:26:45;;;;;;;6.20;3.00;;;;;;;19.72;91.78;101640.31;218658;1288;139782;-89
2023/09/04 19:31:45;;;;;;;7.30;3.60;;;;;;;19.72;92.18;101639.04;218168;1286;140537;-88
2023/09/04 19:36:45;;;;;;;10.00;3.90;;;;;;;19.73;92.63;101639.73;218940;1288;96000;-88
2023/09/04 19:41:46;;;;;;;9.40;4.20;;;;;;;19.69;93.51;101641.52;218093;1285;140922;-88
2023/09/04 19:46:46;;;;;;;9.00;3.40;;;;;;;19.63;93.96;101644.28;218794;1288;139342;-89
2023/09/04 19:51:47;;;;;;;10.10;4.00;;;;;;;19.61;94.30;101645.89;218088;1289;142267;-89
2023/09/04 19:56:49;;;;;;;10.10;5.30;;;;;;;19.62;94.55;101645.24;218796;1288;140195;-89
2023/09/04 20:01:49;;;;;;;12.20;5.00;;;;;;;19.60;95.30;101648.84;217861;1287;141375;-89
2023/09/04 20:06:50;;;;;;;11.90;5.40;;;;;;;19.54;95.79;101648.32;218893;1286;96104;-89
2023/09/04 20:11:50;;;;;;;9.50;4.80;;;;;;;19.49;96.18;101647.48;218145;1288;142230;-87
2023/09/04 20:16:50;;;;;;;13.40;5.30;;;;;;;19.41;96.24;101648.33;218794;1286;139449;-88
2023/09/04 20:21:51;;;;;;;11.20;5.20;;;;;;;19.33;96.75;101647.01;218201;1288;142560;-88
2023/09/04 20:26:51;;;;;;;8.60;5.30;;;;;;;19.22;97.01;101650.80;218723;1288;139895;-88
2023/09/04 20:31:52;;;;;;;9.80;4.50;;;;;;;19.12;97.23;101652.83;218334;1288;142277;-88
2023/09/04 20:36:53;;;;;;;10.70;4.80;;;;;;;19.02;97.45;101647.13;218792;1286;95935;-88
2023/09/04 20:41:54;;;;;;;10.20;5.30;;;;;;;18.90;98.18;101643.90;218147;1286;141213;-88
2023/09/04 20:46:54;;;;;;;17.40;5.60;;;;;;;18.76;98.58;101642.19;218642;1287;139094;-89
2023/09/04 20:51:55;;;;;;;9.80;5.60;;;;;;;18.64;98.65;101649.40;218128;1286;141308;-88
2023/09/04 20:56:55;;;;;;;9.00;4.80;;;;;;;18.54;99.19;101647.19;218599;1286;138966;-88
2023/09/04 21:01:56;;;;;;;15.20;5.10;;;;;;;18.44;98.91;101641.23;218073;1288;141620;-88
2023/09/04 23:25:04;;;;;;;9.60;5.90;;;;;;;16.69;100.00;101656.89;218784;1288;95870;-88
2023/09/04 23:30:08;;;;;;;15.10;7.10;;;;;;;16.64;100.00;101660.42;218376;1286;140778;-88
2023/09/04 23:35:28;;;;;;;15.00;7.90;;;;;;;16.59;100.00;101663.73;218688;1288;139423;-88
2023/09/04 23:45:49;;;;;;;11.60;7.00;;;;;;;16.46;100.00;101666.19;218894;1288;139440;-88
2023/09/04 23:50:54;;;;;;;13.30;7.30;;;;;;;16.38;100.00;101658.02;218182;1285;143413;-88
2023/09/04 23:55:54;;;;;;;12.50;6.70;;;;;;;16.34;100.00;101655.35;218799;1286;139280;-88
